MMTG/TGZ METAR and TAF weather

Enter ICAO airport designator
Station Type Date Time Source
MMTG METAR 2023/01/29 19:52 UTC NOAA

MMTG 291952Z 16005KT 8SM SKC 30/10 A2992


Station Type Date Time Source
MMTG Decoded METAR 2023/01/29 19:52 UTC NOAA

Tuxtla Gutierrez, Chis., Mexico (MMTG) 16-45N 093-07W
Jan 29, 2023 - 02:52 PM EST / 2023.01.29 1952 UTC
Wind: from the SSE (160 degrees) at 6 MPH (5 KT):0
Visibility: 8 mile(s):0
Sky conditions: clear
Temperature: 86 F (30 C)
Dew Point: 50 F (10 C)
Relative Humidity: 28%
Pressure (altimeter): 29.92 in. Hg (1013 hPa)
ob: MMTG 291952Z 16005KT 8SM SKC 30/10 A2992
cycle: 20

Station Type Date Time Source
MMTG TAF 2023/01/29 18:09 UTC NOAA

TAF TAF MMTG 291706Z 2918/3018 01010KT P6SM SKC
BECMG 2922/3000 30020KT
FM300100 30010KT 5SM HZ BKN015
BECMG 3006/3008 4SM BR
FM301300 05005KT P6SM SKC

Example: see airport list